createdAt,value
2023-04-18T00:00:30.624Z,20.15
2023-04-18T00:05:32.345Z,20.10
2023-04-18T00:10:34.002Z,23.13
2023-04-18T00:15:35.747Z,23.40
2023-04-18T00:20:39.011Z,24.40
2023-04-18T00:25:40.935Z,25.13
2023-04-18T00:30:42.654Z,26.83
2023-04-18T00:35:44.570Z,27.38
2023-04-18T00:40:46.368Z,28.15
2023-04-18T00:45:48.100Z,27.73
2023-04-18T00:50:49.871Z,28.08
2023-04-18T00:55:51.858Z,31.30
2023-04-18T01:00:54.726Z,29.42
2023-04-18T01:05:57.534Z,29.42
2023-04-18T01:11:00.021Z,30.55
2023-04-18T01:16:01.833Z,30.23
2023-04-18T01:21:06.237Z,31.20
2023-04-18T01:26:07.959Z,32.83
2023-04-18T01:31:09.683Z,31.17
2023-04-18T01:36:11.803Z,32.33
2023-04-18T01:41:13.510Z,33.50
2023-04-18T01:46:17.361Z,34.17
2023-04-18T01:51:19.085Z,35.50
2023-04-18T01:56:21.167Z,35.15
2023-04-18T02:01:22.993Z,35.80
2023-04-18T02:06:24.826Z,38.03
2023-04-18T02:11:26.791Z,35.08
2023-04-18T02:16:28.532Z,37.53
2023-04-18T02:21:30.726Z,36.47
2023-04-18T02:26:32.504Z,34.17
2023-04-18T02:31:34.283Z,34.33
2023-04-18T02:36:36.023Z,34.53
2023-04-18T02:41:39.304Z,35.20
2023-04-18T02:46:41.013Z,35.22
2023-04-18T02:51:47.112Z,34.47
2023-04-18T02:56:49.951Z,35.80
2023-04-18T03:01:57.651Z,34.80
2023-04-18T03:06:59.868Z,33.30
2023-04-18T03:12:04.165Z,35.35
2023-04-18T03:17:07.277Z,31.63
2023-04-18T03:22:16.184Z,30.33
2023-04-18T03:27:25.961Z,29.33
2023-04-18T03:32:28.027Z,30.70
2023-04-18T03:37:29.823Z,31.83
2023-04-18T03:42:32.736Z,33.15
2023-04-18T03:47:34.627Z,32.90
2023-04-18T03:52:36.472Z,38.05
2023-04-18T03:57:40.836Z,36.35
2023-04-18T04:02:47.808Z,38.17
2023-04-18T04:07:54.993Z,35.75
2023-04-18T04:12:57.740Z,37.25
2023-04-18T04:17:59.754Z,39.05
2023-04-18T04:23:03.467Z,37.00
2023-04-18T04:28:08.222Z,38.97
2023-04-18T04:33:25.099Z,37.75
2023-04-18T04:38:30.988Z,35.90
2023-04-18T04:43:34.117Z,35.13
2023-04-18T04:48:36.134Z,34.13
2023-04-18T04:53:39.004Z,35.47
2023-04-18T04:58:42.143Z,35.38
2023-04-18T05:03:49.944Z,34.35
2023-04-18T05:08:51.878Z,33.65
2023-04-18T05:13:53.541Z,33.90
2023-04-18T05:18:55.251Z,34.15
2023-04-18T05:23:56.969Z,36.13
2023-04-18T05:28:58.660Z,34.22
2023-04-18T05:34:00.710Z,31.92
2023-04-18T05:39:02.455Z,30.88
2023-04-18T05:44:05.624Z,29.05
2023-04-18T05:49:07.606Z,31.23
2023-04-18T05:54:09.373Z,27.70
2023-04-18T05:59:11.320Z,26.08
2023-04-18T06:04:13.523Z,24.08
2023-04-18T06:09:15.768Z,25.95
2023-04-18T06:14:17.554Z,25.25
2023-04-18T06:19:19.494Z,26.95
2023-04-18T06:24:21.458Z,29.63
2023-04-18T06:29:23.550Z,31.85
2023-04-18T06:34:25.853Z,31.13
2023-04-18T06:39:28.047Z,31.05
2023-04-18T06:44:29.745Z,31.65
2023-04-18T06:49:31.591Z,31.55
2023-04-18T06:54:33.506Z,32.88
2023-04-18T06:59:35.893Z,32.85
2023-04-18T07:04:38.129Z,31.58
2023-04-18T07:09:40.160Z,28.55
2023-04-18T07:14:41.932Z,28.42
2023-04-18T07:19:44.350Z,28.13
2023-04-18T07:24:46.176Z,29.73
2023-04-18T07:29:47.889Z,29.92
2023-04-18T07:34:51.476Z,29.33
2023-04-18T07:39:53.287Z,27.58
2023-04-18T07:45:01.055Z,29.40
2023-04-18T07:50:03.150Z,30.10
2023-04-18T07:55:05.682Z,33.67
2023-04-18T08:00:08.021Z,29.00
2023-04-18T08:10:16.337Z,26.95
2023-04-18T08:15:18.377Z,28.38
2023-04-18T08:20:20.137Z,28.63
2023-04-18T08:25:22.338Z,26.65
2023-04-18T08:30:24.150Z,24.83
2023-04-18T08:35:26.273Z,25.98
2023-04-18T08:40:30.190Z,25.58
2023-04-18T08:45:33.328Z,25.00
2023-04-18T08:50:35.219Z,25.15
2023-04-18T08:55:37.468Z,22.23
2023-04-18T09:00:39.186Z,24.80
2023-04-18T09:05:40.979Z,23.63
2023-04-18T09:10:46.523Z,22.73
2023-04-18T09:15:56.185Z,23.58
2023-04-18T09:21:18.614Z,24.05
2023-04-18T09:26:35.822Z,24.23
2023-04-18T09:32:03.809Z,24.30
2023-04-18T09:37:13.678Z,24.13
2023-04-18T09:42:15.799Z,25.45
2023-04-18T09:47:17.500Z,27.23
2023-04-18T09:52:21.300Z,28.50
2023-04-18T09:57:28.762Z,26.15
2023-04-18T10:02:48.183Z,29.10
2023-04-18T10:07:51.053Z,29.08
2023-04-18T10:13:00.697Z,30.75
2023-04-18T10:18:08.751Z,32.13
2023-04-18T10:23:32.688Z,29.92
2023-04-18T10:28:53.778Z,31.27
2023-04-18T10:39:21.967Z,30.30
2023-04-18T10:44:24.262Z,29.83
2023-04-18T10:49:30.299Z,30.83
2023-04-18T10:54:47.116Z,30.25
2023-04-18T10:59:51.001Z,33.25
2023-04-18T11:05:04.793Z,33.10
2023-04-18T11:10:08.538Z,33.08
2023-04-18T11:15:17.630Z,32.53
2023-04-18T11:20:19.645Z,34.83
2023-04-18T11:25:36.579Z,32.42
2023-04-18T11:30:42.430Z,32.33
2023-04-18T11:35:45.833Z,33.22
2023-04-18T11:40:48.475Z,34.88
2023-04-18T11:45:57.641Z,34.30
2023-04-18T11:50:59.354Z,36.22
2023-04-18T11:56:03.409Z,31.98
2023-04-18T12:01:24.370Z,32.38
2023-04-18T12:06:26.964Z,32.92
2023-04-18T12:11:29.456Z,30.80
2023-04-18T12:16:31.503Z,28.67
2023-04-18T12:21:33.320Z,30.77
2023-04-18T12:26:35.433Z,29.23
2023-04-18T12:31:37.397Z,31.30
2023-04-18T12:36:39.156Z,30.27
2023-04-18T12:41:40.894Z,27.85
2023-04-18T12:46:42.698Z,29.48
2023-04-18T12:51:44.524Z,30.05
2023-04-18T12:56:46.462Z,28.65
2023-04-18T13:01:48.095Z,29.98
2023-04-18T13:06:49.817Z,30.63
2023-04-18T13:11:51.610Z,29.58
2023-04-18T13:16:53.428Z,30.88
2023-04-18T13:21:55.759Z,30.17
2023-04-18T13:26:57.538Z,27.98
2023-04-18T13:31:59.353Z,29.10
2023-04-18T13:37:01.307Z,26.88
2023-04-18T13:42:03.424Z,25.83
2023-04-18T13:47:07.049Z,25.27
2023-04-18T13:52:08.810Z,26.00
2023-04-18T13:57:13.311Z,25.80
2023-04-18T14:02:15.302Z,23.92
2023-04-18T14:07:17.727Z,24.35
2023-04-18T14:12:19.330Z,24.10
2023-04-18T14:17:21.062Z,23.48
2023-04-18T14:22:22.805Z,21.63
2023-04-18T14:27:26.225Z,21.67
2023-04-18T14:32:27.932Z,23.02
2023-04-18T14:37:29.548Z,22.55
2023-04-18T14:42:31.220Z,20.40
2023-04-18T14:47:34.630Z,21.38
2023-04-18T14:52:36.430Z,21.23
2023-04-18T14:57:39.559Z,19.48
2023-04-18T15:02:42.118Z,19.95
2023-04-18T15:07:45.120Z,18.50
2023-04-18T15:12:47.034Z,17.98
2023-04-18T15:17:49.021Z,17.35
2023-04-18T15:22:50.813Z,18.00
2023-04-18T15:27:52.911Z,19.30
2023-04-18T15:32:55.730Z,19.00
2023-04-18T15:37:57.715Z,21.75
2023-04-18T15:43:00.753Z,22.58
2023-04-18T15:48:02.547Z,23.25
2023-04-18T15:53:04.236Z,23.60
2023-04-18T15:58:06.648Z,25.52
2023-04-18T16:03:10.348Z,23.63
2023-04-18T16:08:12.162Z,23.30
2023-04-18T16:13:14.096Z,23.80
2023-04-18T16:18:15.833Z,24.55
2023-04-18T16:23:17.580Z,24.70
2023-04-18T16:28:19.283Z,25.67
2023-04-18T16:33:24.719Z,23.95
2023-04-18T16:38:27.401Z,24.25
2023-04-18T16:43:31.040Z,25.95
2023-04-18T16:48:32.816Z,24.85
2023-04-18T16:53:34.576Z,24.45
2023-04-18T16:58:36.227Z,26.88
2023-04-18T17:03:38.030Z,27.92
2023-04-18T17:08:39.797Z,29.17
2023-04-18T17:13:41.864Z,29.35
2023-04-18T17:18:43.562Z,27.20
2023-04-18T17:23:45.666Z,27.42
2023-04-18T17:28:47.335Z,27.40
2023-04-18T17:33:51.945Z,24.70
2023-04-18T17:38:53.600Z,25.55
2023-04-18T17:43:55.446Z,23.48
2023-04-18T17:48:57.223Z,26.15
2023-04-18T17:53:58.968Z,23.65
2023-04-18T17:59:01.132Z,23.23
2023-04-18T18:04:03.158Z,23.27
2023-04-18T18:09:05.375Z,25.23
2023-04-18T18:14:07.197Z,25.98
2023-04-18T18:19:09.743Z,25.20
2023-04-18T18:24:11.689Z,32.63
2023-04-18T18:29:14.115Z,24.80
2023-04-18T18:34:17.024Z,25.17
2023-04-18T18:39:18.963Z,23.77
2023-04-18T18:44:21.200Z,23.92
2023-04-18T18:49:23.020Z,25.35
2023-04-18T18:54:25.920Z,25.60
2023-04-18T18:59:27.605Z,24.33
2023-04-18T19:04:29.621Z,23.45
2023-04-18T19:09:31.625Z,23.50
2023-04-18T19:14:33.679Z,23.70
2023-04-18T19:19:35.592Z,21.67
2023-04-18T19:24:37.342Z,21.98
2023-04-18T19:29:39.524Z,23.17
2023-04-18T19:34:41.326Z,21.63
2023-04-18T19:39:42.978Z,22.00
2023-04-18T19:44:44.593Z,21.48
2023-04-18T19:49:46.272Z,20.95
2023-04-18T19:54:47.998Z,20.33
2023-04-18T19:59:49.598Z,21.02
2023-04-18T20:04:51.447Z,20.80
2023-04-18T20:09:53.388Z,20.67
2023-04-18T20:14:55.838Z,21.20
2023-04-18T20:19:59.517Z,19.55
2023-04-18T20:25:01.599Z,17.73
2023-04-18T20:30:03.523Z,21.83
2023-04-18T20:35:05.772Z,22.35
2023-04-18T20:40:10.881Z,23.25
2023-04-18T20:45:13.700Z,21.63
2023-04-18T20:50:18.069Z,20.40
2023-04-18T20:55:19.940Z,19.63
2023-04-18T21:00:21.805Z,22.50
2023-04-18T21:05:23.668Z,24.27
2023-04-18T21:10:26.256Z,22.58
2023-04-18T21:15:27.955Z,23.58
2023-04-18T21:20:29.607Z,23.67
2023-04-18T21:25:31.337Z,24.05
2023-04-18T21:30:33.090Z,23.35
2023-04-18T21:35:34.808Z,21.45
2023-04-18T21:40:37.552Z,24.15
2023-04-18T21:45:39.249Z,22.20
2023-04-18T21:50:43.151Z,21.08
2023-04-18T21:55:44.835Z,22.23
2023-04-18T22:00:46.504Z,21.42
2023-04-18T22:05:48.214Z,20.83
2023-04-18T22:10:50.473Z,21.23
2023-04-18T22:15:52.168Z,21.08
2023-04-18T22:20:54.867Z,20.98
2023-04-18T22:25:56.582Z,20.17
2023-04-18T22:30:58.486Z,19.58
2023-04-18T22:36:00.791Z,21.35
2023-04-18T22:41:02.431Z,20.35
2023-04-18T22:46:04.131Z,19.17
2023-04-18T22:51:06.195Z,20.92
2023-04-18T22:56:08.045Z,21.02
2023-04-18T23:01:09.758Z,20.92
2023-04-18T23:06:11.414Z,20.05
2023-04-18T23:11:13.607Z,19.13
2023-04-18T23:16:15.502Z,18.77
2023-04-18T23:21:17.867Z,17.10
2023-04-18T23:26:19.682Z,17.55
2023-04-18T23:31:21.962Z,15.25
2023-04-18T23:36:23.649Z,15.27
2023-04-18T23:41:25.569Z,14.15
2023-04-18T23:46:27.719Z,12.90
2023-04-18T23:51:29.301Z,11.93
2023-04-18T23:56:30.998Z,11.48
